Adair Village, OR

5:56 AM PST on December 25, 2014 (GMT -0800)
KORCORVA32 | Change Station
CLOSE
Current Station
Personal Weather Station
Location: Corvallis, OR
Elevation: 236 ft
Nearby Weather Stations

Elev 236 ft 44.56 °N, 123.29 °W | Updated 10 minutes ago

Overcast
Overcast
41.7 °F
Feels Like 42 °F
N
1.1
Wind Variable Wind from SW
Gusts 4.0 mph

Today
High -- | Low -- °F
--% Chance of Precip.
Yesterday
High -- | Low -- °F
Precip. -- in
7:48 AM 4:38 PM
Waxing Crescent, 16% visible
Pressure 30.21 in
Visibility 10.0 miles
Clouds Few 5000 ft
Mostly Cloudy 7500 ft
Overcast 8000 ft
Windchill 42 °F
Dew Point 41 °F
Humidity 96%
Rainfall -999.00 in
Snow Depth Not available.
UV 0 out of 12
Pollen .50 out of 12
Air Quality Not available.
Flu Activity Not available.
METAR KCVO 251335Z AUTO 00000KT 10SM FEW050 BKN075 OVC080 06/04 A3021 RMK AO1

More Conditions Fewer Conditions

Pressure 30.21 in
Visibility 10.0 miles
Clouds Few 5000 ft
Mostly Cloudy 7500 ft
Overcast 8000 ft
Windchill 42 °F
Dew Point 41 °F
Humidity 96%
Rainfall -999.00 in
Snow Depth Not available.
UV 0 out of 12
Pollen .50 out of 12
Air Quality Not available.
Flu Activity Not available.
METAR KCVO 251335Z AUTO 00000KT 10SM FEW050 BKN075 OVC080 06/04 A3021 RMK AO1

More Conditions Fewer Conditions

10-Day Weather Forecast

Almanac

Astronomy

Dec. 25, 2014 Rise Set
Actual Time
Civil Twilight
Nautical Twilight
Astronomical Twilight
Moon
Length of Visible Light
Length of Day
Tomorrow will be .
, % of the Moon is Illuminated

Today's Extremes

State Highs State Lows

Community

WunderPhotos

Upload Photos

1,780,275 photos uploaded!

WunderBlogs® & News

Nearby

Air Quality

  Air Quality AQ Index Pollutant
Not available.

Snow Depth

Station Depth Elevation

Earthquake Activity

City Distance Mag. Time & Date
Minimum magnitude displayed is 2.5.

Coastal Water Temperatures

Place Temperature

Nearby Weather Stations